sensor_id;sensor_type;location;lat;lon;timestamp;P1;durP1;ratioP1;P2;durP2;ratioP2
80322;SDS011;69636;52.372;13.610;2023-08-07T00:02:23;6.30;;;4.20;;
80322;SDS011;69636;52.372;13.610;2023-08-07T00:04:50;7.47;;;5.15;;
80322;SDS011;69636;52.372;13.610;2023-08-07T00:07:18;5.57;;;4.97;;
80322;SDS011;69636;52.372;13.610;2023-08-07T00:09:45;5.70;;;4.57;;
80322;SDS011;69636;52.372;13.610;2023-08-07T00:12:12;6.38;;;4.85;;
80322;SDS011;69636;52.372;13.610;2023-08-07T00:14:40;6.35;;;4.90;;
80322;SDS011;69636;52.372;13.610;2023-08-07T00:17:07;6.20;;;4.53;;
80322;SDS011;69636;52.372;13.610;2023-08-07T00:19:36;6.90;;;5.22;;
80322;SDS011;69636;52.372;13.610;2023-08-07T00:22:03;7.93;;;6.20;;
80322;SDS011;69636;52.372;13.610;2023-08-07T00:24:31;8.93;;;5.88;;
80322;SDS011;69636;52.372;13.610;2023-08-07T00:26:59;7.57;;;4.90;;
80322;SDS011;69636;52.372;13.610;2023-08-07T00:29:26;8.02;;;6.05;;
80322;SDS011;69636;52.372;13.610;2023-08-07T00:31:54;7.85;;;5.60;;
80322;SDS011;69636;52.372;13.610;2023-08-07T00:34:22;6.72;;;4.82;;
80322;SDS011;69636;52.372;13.610;2023-08-07T00:36:53;7.00;;;6.30;;
80322;SDS011;69636;52.372;13.610;2023-08-07T00:39:21;7.20;;;5.15;;
80322;SDS011;69636;52.372;13.610;2023-08-07T00:41:48;7.70;;;4.93;;
80322;SDS011;69636;52.372;13.610;2023-08-07T00:44:16;5.85;;;4.82;;
80322;SDS011;69636;52.372;13.610;2023-08-07T00:46:43;6.25;;;3.42;;
80322;SDS011;69636;52.372;13.610;2023-08-07T00:49:11;5.85;;;4.38;;
80322;SDS011;69636;52.372;13.610;2023-08-07T00:51:39;4.65;;;2.75;;
80322;SDS011;69636;52.372;13.610;2023-08-07T00:54:08;5.75;;;5.10;;
80322;SDS011;69636;52.372;13.610;2023-08-07T00:56:38;5.72;;;4.38;;
80322;SDS011;69636;52.372;13.610;2023-08-07T00:59:06;6.70;;;4.68;;
80322;SDS011;69636;52.372;13.610;2023-08-07T01:01:35;5.97;;;4.47;;
80322;SDS011;69636;52.372;13.610;2023-08-07T01:04:03;6.20;;;4.38;;
80322;SDS011;69636;52.372;13.610;2023-08-07T01:06:31;6.40;;;4.65;;
80322;SDS011;69636;52.372;13.610;2023-08-07T01:08:58;5.95;;;4.65;;
80322;SDS011;69636;52.372;13.610;2023-08-07T01:11:30;5.78;;;5.00;;
80322;SDS011;69636;52.372;13.610;2023-08-07T01:14:05;6.28;;;4.90;;
80322;SDS011;69636;52.372;13.610;2023-08-07T01:16:38;6.85;;;5.13;;
80322;SDS011;69636;52.372;13.610;2023-08-07T01:19:12;5.75;;;4.63;;
80322;SDS011;69636;52.372;13.610;2023-08-07T01:21:49;7.70;;;6.70;;
80322;SDS011;69636;52.372;13.610;2023-08-07T01:24:17;8.93;;;4.90;;
80322;SDS011;69636;52.372;13.610;2023-08-07T01:26:44;8.30;;;5.10;;
80322;SDS011;69636;52.372;13.610;2023-08-07T01:29:14;7.15;;;5.43;;
80322;SDS011;69636;52.372;13.610;2023-08-07T01:31:49;9.07;;;5.18;;
80322;SDS011;69636;52.372;13.610;2023-08-07T01:34:21;7.55;;;5.22;;
80322;SDS011;69636;52.372;13.610;2023-08-07T01:36:52;6.70;;;5.38;;
80322;SDS011;69636;52.372;13.610;2023-08-07T01:39:23;7.05;;;5.30;;
80322;SDS011;69636;52.372;13.610;2023-08-07T01:41:51;8.25;;;5.13;;
80322;SDS011;69636;52.372;13.610;2023-08-07T01:44:18;6.65;;;5.68;;
80322;SDS011;69636;52.372;13.610;2023-08-07T01:46:46;6.75;;;5.10;;
80322;SDS011;69636;52.372;13.610;2023-08-07T01:49:13;6.28;;;4.68;;
80322;SDS011;69636;52.372;13.610;2023-08-07T01:51:43;6.50;;;4.80;;
80322;SDS011;69636;52.372;13.610;2023-08-07T01:54:13;10.60;;;5.10;;
80322;SDS011;69636;52.372;13.610;2023-08-07T01:56:40;7.63;;;5.75;;
80322;SDS011;69636;52.372;13.610;2023-08-07T01:59:07;8.57;;;5.35;;
80322;SDS011;69636;52.372;13.610;2023-08-07T02:01:35;7.80;;;4.97;;
80322;SDS011;69636;52.372;13.610;2023-08-07T02:04:06;7.80;;;5.28;;
80322;SDS011;69636;52.372;13.610;2023-08-07T02:06:34;9.55;;;4.88;;
80322;SDS011;69636;52.372;13.610;2023-08-07T02:09:01;8.85;;;5.88;;
80322;SDS011;69636;52.372;13.610;2023-08-07T02:11:30;9.23;;;6.03;;
80322;SDS011;69636;52.372;13.610;2023-08-07T02:13:57;8.73;;;5.68;;
80322;SDS011;69636;52.372;13.610;2023-08-07T02:16:25;7.40;;;4.95;;
80322;SDS011;69636;52.372;13.610;2023-08-07T02:18:52;7.90;;;5.78;;
80322;SDS011;69636;52.372;13.610;2023-08-07T02:21:20;8.77;;;6.50;;
80322;SDS011;69636;52.372;13.610;2023-08-07T02:23:47;7.80;;;4.70;;
80322;SDS011;69636;52.372;13.610;2023-08-07T02:26:17;7.90;;;5.47;;
80322;SDS011;69636;52.372;13.610;2023-08-07T02:28:46;8.60;;;5.82;;
80322;SDS011;69636;52.372;13.610;2023-08-07T02:31:16;8.48;;;6.15;;
80322;SDS011;69636;52.372;13.610;2023-08-07T02:33:43;7.63;;;5.38;;
80322;SDS011;69636;52.372;13.610;2023-08-07T02:36:11;7.38;;;5.75;;
80322;SDS011;69636;52.372;13.610;2023-08-07T02:38:39;9.05;;;5.78;;
80322;SDS011;69636;52.372;13.610;2023-08-07T02:41:07;8.02;;;5.72;;
80322;SDS011;69636;52.372;13.610;2023-08-07T02:43:35;7.93;;;5.20;;
80322;SDS011;69636;52.372;13.610;2023-08-07T02:46:06;8.40;;;5.35;;
80322;SDS011;69636;52.372;13.610;2023-08-07T02:48:33;6.90;;;6.05;;
80322;SDS011;69636;52.372;13.610;2023-08-07T02:51:01;10.55;;;6.45;;
80322;SDS011;69636;52.372;13.610;2023-08-07T02:53:29;10.98;;;6.65;;
80322;SDS011;69636;52.372;13.610;2023-08-07T02:55:56;8.10;;;5.93;;
80322;SDS011;69636;52.372;13.610;2023-08-07T02:58:24;9.82;;;7.35;;
80322;SDS011;69636;52.372;13.610;2023-08-07T03:00:51;11.05;;;6.72;;
80322;SDS011;69636;52.372;13.610;2023-08-07T03:03:19;7.47;;;6.43;;
80322;SDS011;69636;52.372;13.610;2023-08-07T03:05:47;9.13;;;7.78;;
80322;SDS011;69636;52.372;13.610;2023-08-07T03:08:15;8.77;;;6.43;;
80322;SDS011;69636;52.372;13.610;2023-08-07T03:10:49;8.25;;;7.00;;
80322;SDS011;69636;52.372;13.610;2023-08-07T03:13:16;10.07;;;6.78;;
80322;SDS011;69636;52.372;13.610;2023-08-07T03:15:44;8.07;;;6.47;;
80322;SDS011;69636;52.372;13.610;2023-08-07T03:18:12;7.82;;;6.15;;
80322;SDS011;69636;52.372;13.610;2023-08-07T03:20:40;9.02;;;6.43;;
80322;SDS011;69636;52.372;13.610;2023-08-07T03:23:08;8.15;;;6.63;;
80322;SDS011;69636;52.372;13.610;2023-08-07T03:25:35;10.35;;;7.38;;
80322;SDS011;69636;52.372;13.610;2023-08-07T03:28:03;9.40;;;6.78;;
80322;SDS011;69636;52.372;13.610;2023-08-07T03:30:31;10.27;;;5.95;;
80322;SDS011;69636;52.372;13.610;2023-08-07T03:32:58;8.38;;;6.68;;
80322;SDS011;69636;52.372;13.610;2023-08-07T03:35:25;8.77;;;6.32;;
80322;SDS011;69636;52.372;13.610;2023-08-07T03:37:54;7.95;;;5.63;;
80322;SDS011;69636;52.372;13.610;2023-08-07T03:40:22;8.93;;;6.90;;
80322;SDS011;69636;52.372;13.610;2023-08-07T03:42:49;11.85;;;7.00;;
80322;SDS011;69636;52.372;13.610;2023-08-07T03:45:17;9.25;;;5.97;;
80322;SDS011;69636;52.372;13.610;2023-08-07T03:47:45;8.77;;;6.35;;
80322;SDS011;69636;52.372;13.610;2023-08-07T03:50:12;11.45;;;7.28;;
80322;SDS011;69636;52.372;13.610;2023-08-07T03:52:41;8.40;;;5.90;;
80322;SDS011;69636;52.372;13.610;2023-08-07T03:55:10;11.57;;;7.03;;
80322;SDS011;69636;52.372;13.610;2023-08-07T03:57:37;11.27;;;8.32;;
80322;SDS011;69636;52.372;13.610;2023-08-07T04:00:05;11.80;;;7.20;;
80322;SDS011;69636;52.372;13.610;2023-08-07T04:02:34;10.18;;;8.10;;
80322;SDS011;69636;52.372;13.610;2023-08-07T04:05:01;11.65;;;7.55;;
80322;SDS011;69636;52.372;13.610;2023-08-07T04:07:28;9.63;;;7.90;;
80322;SDS011;69636;52.372;13.610;2023-08-07T04:09:56;12.55;;;7.60;;
80322;SDS011;69636;52.372;13.610;2023-08-07T04:12:25;10.05;;;6.80;;
80322;SDS011;69636;52.372;13.610;2023-08-07T04:14:53;11.32;;;7.60;;
80322;SDS011;69636;52.372;13.610;2023-08-07T04:17:20;10.48;;;8.13;;
80322;SDS011;69636;52.372;13.610;2023-08-07T04:19:48;10.55;;;8.20;;
80322;SDS011;69636;52.372;13.610;2023-08-07T04:22:15;10.52;;;8.13;;
80322;SDS011;69636;52.372;13.610;2023-08-07T04:24:42;10.43;;;5.78;;
80322;SDS011;69636;52.372;13.610;2023-08-07T04:27:10;10.70;;;8.40;;
80322;SDS011;69636;52.372;13.610;2023-08-07T04:29:39;10.00;;;7.15;;
80322;SDS011;69636;52.372;13.610;2023-08-07T04:32:06;10.32;;;6.38;;
80322;SDS011;69636;52.372;13.610;2023-08-07T04:34:34;10.88;;;7.50;;
80322;SDS011;69636;52.372;13.610;2023-08-07T04:37:01;8.77;;;6.07;;
80322;SDS011;69636;52.372;13.610;2023-08-07T04:39:30;9.75;;;7.45;;
80322;SDS011;69636;52.372;13.610;2023-08-07T04:41:57;9.43;;;6.72;;
80322;SDS011;69636;52.372;13.610;2023-08-07T04:44:25;9.38;;;6.15;;
80322;SDS011;69636;52.372;13.610;2023-08-07T04:46:53;8.55;;;6.50;;
80322;SDS011;69636;52.372;13.610;2023-08-07T04:49:21;8.88;;;6.40;;
80322;SDS011;69636;52.372;13.610;2023-08-07T04:51:48;9.43;;;6.82;;
80322;SDS011;69636;52.372;13.610;2023-08-07T04:54:16;7.10;;;6.40;;
80322;SDS011;69636;52.372;13.610;2023-08-07T04:56:43;9.25;;;5.35;;
80322;SDS011;69636;52.372;13.610;2023-08-07T04:59:11;8.85;;;6.07;;
80322;SDS011;69636;52.372;13.610;2023-08-07T05:01:39;9.88;;;6.65;;
80322;SDS011;69636;52.372;13.610;2023-08-07T05:04:07;7.57;;;6.03;;
80322;SDS011;69636;52.372;13.610;2023-08-07T05:06:35;6.53;;;5.60;;
80322;SDS011;69636;52.372;13.610;2023-08-07T05:09:02;8.07;;;6.05;;
80322;SDS011;69636;52.372;13.610;2023-08-07T05:11:30;8.70;;;5.75;;
80322;SDS011;69636;52.372;13.610;2023-08-07T05:13:57;9.52;;;4.95;;
80322;SDS011;69636;52.372;13.610;2023-08-07T05:16:25;6.85;;;5.95;;
80322;SDS011;69636;52.372;13.610;2023-08-07T05:18:53;7.60;;;5.78;;
80322;SDS011;69636;52.372;13.610;2023-08-07T05:21:21;6.93;;;6.22;;
80322;SDS011;69636;52.372;13.610;2023-08-07T05:23:48;6.63;;;5.63;;
80322;SDS011;69636;52.372;13.610;2023-08-07T05:26:16;6.63;;;5.93;;
80322;SDS011;69636;52.372;13.610;2023-08-07T05:28:43;6.82;;;6.13;;
80322;SDS011;69636;52.372;13.610;2023-08-07T05:31:11;8.20;;;6.43;;
80322;SDS011;69636;52.372;13.610;2023-08-07T05:33:39;7.90;;;5.63;;
80322;SDS011;69636;52.372;13.610;2023-08-07T05:36:06;8.60;;;6.43;;
80322;SDS011;69636;52.372;13.610;2023-08-07T05:38:35;5.57;;;3.85;;
80322;SDS011;69636;52.372;13.610;2023-08-07T05:41:02;7.28;;;5.28;;
80322;SDS011;69636;52.372;13.610;2023-08-07T05:43:30;7.63;;;4.93;;
80322;SDS011;69636;52.372;13.610;2023-08-07T05:45:57;7.18;;;6.05;;
80322;SDS011;69636;52.372;13.610;2023-08-07T05:48:25;7.53;;;6.25;;
80322;SDS011;69636;52.372;13.610;2023-08-07T05:53:21;5.72;;;4.65;;
80322;SDS011;69636;52.372;13.610;2023-08-07T05:55:49;8.13;;;7.43;;
80322;SDS011;69636;52.372;13.610;2023-08-07T05:58:17;5.93;;;3.33;;
80322;SDS011;69636;52.372;13.610;2023-08-07T06:00:44;5.88;;;4.45;;
80322;SDS011;69636;52.372;13.610;2023-08-07T06:03:13;6.43;;;4.35;;
80322;SDS011;69636;52.372;13.610;2023-08-07T06:05:41;5.82;;;4.35;;
80322;SDS011;69636;52.372;13.610;2023-08-07T06:08:08;6.85;;;4.45;;
80322;SDS011;69636;52.372;13.610;2023-08-07T06:10:37;5.22;;;3.22;;
80322;SDS011;69636;52.372;13.610;2023-08-07T06:13:06;6.00;;;3.78;;
80322;SDS011;69636;52.372;13.610;2023-08-07T06:15:33;5.50;;;4.40;;
80322;SDS011;69636;52.372;13.610;2023-08-07T06:18:00;7.20;;;4.38;;
80322;SDS011;69636;52.372;13.610;2023-08-07T06:20:28;6.32;;;4.75;;
80322;SDS011;69636;52.372;13.610;2023-08-07T06:22:55;5.05;;;3.72;;
80322;SDS011;69636;52.372;13.610;2023-08-07T06:25:23;6.28;;;4.20;;
80322;SDS011;69636;52.372;13.610;2023-08-07T06:27:50;5.38;;;4.35;;
80322;SDS011;69636;52.372;13.610;2023-08-07T06:30:19;6.88;;;3.85;;
80322;SDS011;69636;52.372;13.610;2023-08-07T06:32:46;8.63;;;4.10;;
80322;SDS011;69636;52.372;13.610;2023-08-07T06:35:14;5.10;;;3.63;;
80322;SDS011;69636;52.372;13.610;2023-08-07T06:37:41;5.95;;;3.42;;
80322;SDS011;69636;52.372;13.610;2023-08-07T06:40:09;6.75;;;2.63;;
80322;SDS011;69636;52.372;13.610;2023-08-07T06:42:37;5.32;;;3.58;;
80322;SDS011;69636;52.372;13.610;2023-08-07T06:45:04;5.20;;;3.20;;
80322;SDS011;69636;52.372;13.610;2023-08-07T06:47:34;4.45;;;3.33;;
80322;SDS011;69636;52.372;13.610;2023-08-07T06:50:01;5.90;;;4.10;;
80322;SDS011;69636;52.372;13.610;2023-08-07T06:52:29;4.40;;;3.58;;
80322;SDS011;69636;52.372;13.610;2023-08-07T06:54:56;5.70;;;5.03;;
80322;SDS011;69636;52.372;13.610;2023-08-07T06:57:23;4.00;;;3.22;;
80322;SDS011;69636;52.372;13.610;2023-08-07T06:59:51;4.15;;;2.40;;
80322;SDS011;69636;52.372;13.610;2023-08-07T07:02:18;3.90;;;2.50;;
80322;SDS011;69636;52.372;13.610;2023-08-07T07:04:47;5.30;;;3.45;;
80322;SDS011;69636;52.372;13.610;2023-08-07T07:07:15;3.75;;;2.83;;
80322;SDS011;69636;52.372;13.610;2023-08-07T07:09:42;6.40;;;4.20;;
80322;SDS011;69636;52.372;13.610;2023-08-07T07:12:10;4.35;;;3.20;;
80322;SDS011;69636;52.372;13.610;2023-08-07T07:14:37;5.35;;;4.03;;
80322;SDS011;69636;52.372;13.610;2023-08-07T07:17:04;4.70;;;3.10;;
80322;SDS011;69636;52.372;13.610;2023-08-07T07:19:32;3.85;;;3.13;;
80322;SDS011;69636;52.372;13.610;2023-08-07T07:22:00;3.60;;;3.03;;
80322;SDS011;69636;52.372;13.610;2023-08-07T07:24:28;3.50;;;2.75;;
80322;SDS011;69636;52.372;13.610;2023-08-07T07:26:55;6.10;;;3.47;;
80322;SDS011;69636;52.372;13.610;2023-08-07T07:29:23;3.42;;;2.60;;
80322;SDS011;69636;52.372;13.610;2023-08-07T07:31:50;4.50;;;2.50;;
80322;SDS011;69636;52.372;13.610;2023-08-07T07:34:17;4.00;;;2.75;;
80322;SDS011;69636;52.372;13.610;2023-08-07T07:36:45;5.80;;;2.60;;
80322;SDS011;69636;52.372;13.610;2023-08-07T07:39:13;4.15;;;3.08;;
80322;SDS011;69636;52.372;13.610;2023-08-07T07:41:41;3.35;;;2.47;;
80322;SDS011;69636;52.372;13.610;2023-08-07T07:44:08;4.65;;;2.60;;
80322;SDS011;69636;52.372;13.610;2023-08-07T07:46:35;4.28;;;3.33;;
80322;SDS011;69636;52.372;13.610;2023-08-07T07:49:03;3.80;;;3.00;;
80322;SDS011;69636;52.372;13.610;2023-08-07T07:51:30;4.00;;;2.67;;
80322;SDS011;69636;52.372;13.610;2023-08-07T07:53:58;3.97;;;2.97;;
80322;SDS011;69636;52.372;13.610;2023-08-07T07:56:42;3.85;;;2.67;;
80322;SDS011;69636;52.372;13.610;2023-08-07T07:59:10;3.22;;;2.20;;
80322;SDS011;69636;52.372;13.610;2023-08-07T08:01:38;4.18;;;2.60;;
80322;SDS011;69636;52.372;13.610;2023-08-07T08:04:06;4.97;;;2.85;;
80322;SDS011;69636;52.372;13.610;2023-08-07T08:09:00;4.03;;;2.58;;
80322;SDS011;69636;52.372;13.610;2023-08-07T08:11:28;4.47;;;3.17;;
80322;SDS011;69636;52.372;13.610;2023-08-07T08:13:57;3.55;;;3.10;;
80322;SDS011;69636;52.372;13.610;2023-08-07T08:16:24;3.88;;;3.33;;
80322;SDS011;69636;52.372;13.610;2023-08-07T08:18:51;4.85;;;2.88;;
80322;SDS011;69636;52.372;13.610;2023-08-07T08:21:19;3.80;;;2.80;;
80322;SDS011;69636;52.372;13.610;2023-08-07T08:23:46;3.78;;;2.72;;
80322;SDS011;69636;52.372;13.610;2023-08-07T08:26:13;4.30;;;2.03;;
80322;SDS011;69636;52.372;13.610;2023-08-07T08:28:40;4.43;;;2.50;;
80322;SDS011;69636;52.372;13.610;2023-08-07T08:31:09;5.20;;;3.35;;
80322;SDS011;69636;52.372;13.610;2023-08-07T08:33:36;6.18;;;3.05;;
80322;SDS011;69636;52.372;13.610;2023-08-07T08:36:04;5.22;;;3.47;;
80322;SDS011;69636;52.372;13.610;2023-08-07T08:38:31;4.82;;;2.60;;
80322;SDS011;69636;52.372;13.610;2023-08-07T08:40:59;4.03;;;3.00;;
80322;SDS011;69636;52.372;13.610;2023-08-07T08:43:29;5.43;;;3.00;;
80322;SDS011;69636;52.372;13.610;2023-08-07T08:46:01;4.03;;;3.33;;
80322;SDS011;69636;52.372;13.610;2023-08-07T08:48:33;5.05;;;3.17;;
80322;SDS011;69636;52.372;13.610;2023-08-07T08:51:02;5.10;;;3.03;;
80322;SDS011;69636;52.372;13.610;2023-08-07T08:53:31;3.90;;;2.92;;
80322;SDS011;69636;52.372;13.610;2023-08-07T08:55:59;3.40;;;1.90;;
80322;SDS011;69636;52.372;13.610;2023-08-07T08:58:27;4.82;;;3.58;;
80322;SDS011;69636;52.372;13.610;2023-08-07T09:00:55;5.68;;;3.10;;
80322;SDS011;69636;52.372;13.610;2023-08-07T09:03:23;3.70;;;2.63;;
80322;SDS011;69636;52.372;13.610;2023-08-07T09:05:53;5.25;;;3.15;;
80322;SDS011;69636;52.372;13.610;2023-08-07T09:08:21;5.53;;;3.70;;
80322;SDS011;69636;52.372;13.610;2023-08-07T09:10:50;5.70;;;4.15;;
80322;SDS011;69636;52.372;13.610;2023-08-07T09:13:20;4.93;;;3.88;;
80322;SDS011;69636;52.372;13.610;2023-08-07T09:15:50;5.00;;;4.43;;
80322;SDS011;69636;52.372;13.610;2023-08-07T09:20:45;5.45;;;4.60;;
80322;SDS011;69636;52.372;13.610;2023-08-07T09:25:41;7.03;;;5.32;;
80322;SDS011;69636;52.372;13.610;2023-08-07T09:28:09;4.47;;;4.03;;
80322;SDS011;69636;52.372;13.610;2023-08-07T09:30:36;4.82;;;3.88;;
80322;SDS011;69636;52.372;13.610;2023-08-07T09:33:04;6.72;;;3.75;;
80322;SDS011;69636;52.372;13.610;2023-08-07T09:35:31;4.93;;;3.90;;
80322;SDS011;69636;52.372;13.610;2023-08-07T09:37:59;6.25;;;4.75;;
80322;SDS011;69636;52.372;13.610;2023-08-07T09:40:28;5.10;;;2.85;;
80322;SDS011;69636;52.372;13.610;2023-08-07T09:42:56;6.20;;;4.80;;
80322;SDS011;69636;52.372;13.610;2023-08-07T09:45:24;5.72;;;3.78;;
80322;SDS011;69636;52.372;13.610;2023-08-07T09:47:56;7.00;;;4.07;;
80322;SDS011;69636;52.372;13.610;2023-08-07T09:50:24;8.93;;;5.00;;
80322;SDS011;69636;52.372;13.610;2023-08-07T09:52:53;6.78;;;4.75;;
80322;SDS011;69636;52.372;13.610;2023-08-07T09:57:50;3.70;;;2.65;;
80322;SDS011;69636;52.372;13.610;2023-08-07T10:00:18;5.63;;;3.40;;
80322;SDS011;69636;52.372;13.610;2023-08-07T10:02:46;4.45;;;3.50;;
80322;SDS011;69636;52.372;13.610;2023-08-07T10:05:14;4.78;;;3.00;;
80322;SDS011;69636;52.372;13.610;2023-08-07T10:10:09;4.20;;;2.50;;
80322;SDS011;69636;52.372;13.610;2023-08-07T10:12:37;3.28;;;2.53;;
80322;SDS011;69636;52.372;13.610;2023-08-07T10:15:07;3.67;;;2.65;;
80322;SDS011;69636;52.372;13.610;2023-08-07T10:17:35;4.95;;;2.53;;
80322;SDS011;69636;52.372;13.610;2023-08-07T10:22:30;4.57;;;2.30;;
80322;SDS011;69636;52.372;13.610;2023-08-07T10:25:01;5.22;;;2.50;;
80322;SDS011;69636;52.372;13.610;2023-08-07T10:27:30;3.10;;;2.08;;
80322;SDS011;69636;52.372;13.610;2023-08-07T10:30:02;5.05;;;1.75;;
80322;SDS011;69636;52.372;13.610;2023-08-07T10:32:36;3.53;;;2.53;;
80322;SDS011;69636;52.372;13.610;2023-08-07T10:35:04;4.88;;;2.00;;
80322;SDS011;69636;52.372;13.610;2023-08-07T10:37:33;2.90;;;1.83;;
80322;SDS011;69636;52.372;13.610;2023-08-07T10:40:07;3.53;;;2.03;;
80322;SDS011;69636;52.372;13.610;2023-08-07T10:45:25;2.72;;;1.70;;
80322;SDS011;69636;52.372;13.610;2023-08-07T10:48:04;3.13;;;1.75;;
80322;SDS011;69636;52.372;13.610;2023-08-07T10:53:02;2.97;;;1.20;;
80322;SDS011;69636;52.372;13.610;2023-08-07T10:55:42;3.25;;;1.92;;
80322;SDS011;69636;52.372;13.610;2023-08-07T11:01:16;3.33;;;1.83;;
80322;SDS011;69636;52.372;13.610;2023-08-07T11:03:50;3.05;;;1.95;;
80322;SDS011;69636;52.372;13.610;2023-08-07T11:06:21;4.20;;;2.58;;
80322;SDS011;69636;52.372;13.610;2023-08-07T11:08:49;2.97;;;2.30;;
80322;SDS011;69636;52.372;13.610;2023-08-07T11:13:44;2.72;;;1.77;;
80322;SDS011;69636;52.372;13.610;2023-08-07T11:16:12;3.10;;;1.60;;
80322;SDS011;69636;52.372;13.610;2023-08-07T11:18:39;3.05;;;2.05;;
80322;SDS011;69636;52.372;13.610;2023-08-07T11:21:09;3.40;;;1.50;;
80322;SDS011;69636;52.372;13.610;2023-08-07T11:23:38;2.70;;;1.60;;
80322;SDS011;69636;52.372;13.610;2023-08-07T11:26:06;2.50;;;0.95;;
80322;SDS011;69636;52.372;13.610;2023-08-07T11:31:01;3.65;;;1.52;;
80322;SDS011;69636;52.372;13.610;2023-08-07T11:33:28;3.40;;;1.70;;
80322;SDS011;69636;52.372;13.610;2023-08-07T11:35:56;2.53;;;1.90;;
80322;SDS011;69636;52.372;13.610;2023-08-07T11:38:31;4.43;;;2.05;;
80322;SDS011;69636;52.372;13.610;2023-08-07T11:41:01;2.85;;;1.75;;
80322;SDS011;69636;52.372;13.610;2023-08-07T11:43:30;3.65;;;1.30;;
80322;SDS011;69636;52.372;13.610;2023-08-07T11:45:59;4.25;;;2.03;;
80322;SDS011;69636;52.372;13.610;2023-08-07T11:48:28;4.10;;;1.48;;
80322;SDS011;69636;52.372;13.610;2023-08-07T11:50:57;4.13;;;1.88;;
80322;SDS011;69636;52.372;13.610;2023-08-07T11:53:25;3.08;;;1.83;;
80322;SDS011;69636;52.372;13.610;2023-08-07T11:55:58;2.92;;;1.92;;
80322;SDS011;69636;52.372;13.610;2023-08-07T11:58:27;2.88;;;2.40;;
80322;SDS011;69636;52.372;13.610;2023-08-07T12:01:03;3.13;;;2.03;;
80322;SDS011;69636;52.372;13.610;2023-08-07T12:03:31;3.72;;;2.00;;
80322;SDS011;69636;52.372;13.610;2023-08-07T12:06:02;3.33;;;2.88;;
80322;SDS011;69636;52.372;13.610;2023-08-07T12:08:33;3.50;;;2.25;;
80322;SDS011;69636;52.372;13.610;2023-08-07T12:11:03;3.13;;;2.17;;
80322;SDS011;69636;52.372;13.610;2023-08-07T12:13:32;3.75;;;1.92;;
80322;SDS011;69636;52.372;13.610;2023-08-07T12:16:00;3.58;;;1.80;;
80322;SDS011;69636;52.372;13.610;2023-08-07T12:18:29;3.83;;;2.53;;
80322;SDS011;69636;52.372;13.610;2023-08-07T12:20:57;3.83;;;1.60;;
80322;SDS011;69636;52.372;13.610;2023-08-07T12:23:26;4.57;;;3.67;;
80322;SDS011;69636;52.372;13.610;2023-08-07T12:25:54;3.50;;;1.92;;
80322;SDS011;69636;52.372;13.610;2023-08-07T12:28:23;3.15;;;1.92;;
80322;SDS011;69636;52.372;13.610;2023-08-07T12:30:51;2.70;;;1.27;;
80322;SDS011;69636;52.372;13.610;2023-08-07T12:33:18;4.95;;;2.13;;
80322;SDS011;69636;52.372;13.610;2023-08-07T12:35:46;3.72;;;1.80;;
80322;SDS011;69636;52.372;13.610;2023-08-07T12:40:41;3.83;;;2.03;;
80322;SDS011;69636;52.372;13.610;2023-08-07T12:43:10;4.15;;;1.77;;
80322;SDS011;69636;52.372;13.610;2023-08-07T12:45:39;3.80;;;1.80;;
80322;SDS011;69636;52.372;13.610;2023-08-07T12:48:09;2.17;;;1.52;;
80322;SDS011;69636;52.372;13.610;2023-08-07T12:50:38;3.70;;;1.90;;
80322;SDS011;69636;52.372;13.610;2023-08-07T12:53:07;3.00;;;2.40;;
80322;SDS011;69636;52.372;13.610;2023-08-07T12:55:34;3.78;;;1.90;;
80322;SDS011;69636;52.372;13.610;2023-08-07T12:58:03;3.00;;;1.98;;
80322;SDS011;69636;52.372;13.610;2023-08-07T13:00:31;3.53;;;0.90;;
80322;SDS011;69636;52.372;13.610;2023-08-07T13:03:01;2.80;;;1.65;;
80322;SDS011;69636;52.372;13.610;2023-08-07T13:05:29;2.75;;;1.40;;
80322;SDS011;69636;52.372;13.610;2023-08-07T13:07:56;3.08;;;1.30;;
80322;SDS011;69636;52.372;13.610;2023-08-07T13:10:24;2.97;;;1.17;;
80322;SDS011;69636;52.372;13.610;2023-08-07T13:12:51;1.55;;;0.70;;
80322;SDS011;69636;52.372;13.610;2023-08-07T13:15:18;2.42;;;0.88;;
80322;SDS011;69636;52.372;13.610;2023-08-07T13:17:46;1.38;;;0.75;;
80322;SDS011;69636;52.372;13.610;2023-08-07T13:20:14;3.08;;;0.40;;
80322;SDS011;69636;52.372;13.610;2023-08-07T13:22:42;4.13;;;0.90;;
80322;SDS011;69636;52.372;13.610;2023-08-07T13:25:11;2.35;;;1.35;;
80322;SDS011;69636;52.372;13.610;2023-08-07T13:27:39;2.67;;;1.20;;
80322;SDS011;69636;52.372;13.610;2023-08-07T13:30:07;2.28;;;1.73;;
80322;SDS011;69636;52.372;13.610;2023-08-07T13:32:35;2.25;;;1.23;;
80322;SDS011;69636;52.372;13.610;2023-08-07T13:35:03;3.55;;;1.27;;
80322;SDS011;69636;52.372;13.610;2023-08-07T13:37:32;3.28;;;1.38;;
80322;SDS011;69636;52.372;13.610;2023-08-07T13:40:02;3.53;;;1.38;;
80322;SDS011;69636;52.372;13.610;2023-08-07T13:42:29;3.72;;;1.60;;
80322;SDS011;69636;52.372;13.610;2023-08-07T13:44:57;3.05;;;1.80;;
80322;SDS011;69636;52.372;13.610;2023-08-07T13:47:24;3.53;;;1.40;;
80322;SDS011;69636;52.372;13.610;2023-08-07T13:49:52;3.00;;;1.67;;
80322;SDS011;69636;52.372;13.610;2023-08-07T13:52:19;3.13;;;1.70;;
80322;SDS011;69636;52.372;13.610;2023-08-07T13:54:49;3.75;;;1.85;;
80322;SDS011;69636;52.372;13.610;2023-08-07T13:57:17;4.03;;;1.55;;
80322;SDS011;69636;52.372;13.610;2023-08-07T13:59:44;4.82;;;1.00;;
80322;SDS011;69636;52.372;13.610;2023-08-07T14:02:13;2.92;;;1.70;;
80322;SDS011;69636;52.372;13.610;2023-08-07T14:04:40;5.05;;;2.45;;
80322;SDS011;69636;52.372;13.610;2023-08-07T14:07:08;4.35;;;2.17;;
80322;SDS011;69636;52.372;13.610;2023-08-07T14:09:36;6.00;;;3.10;;
80322;SDS011;69636;52.372;13.610;2023-08-07T14:12:05;4.55;;;1.58;;
80322;SDS011;69636;52.372;13.610;2023-08-07T14:14:33;5.30;;;1.98;;
80322;SDS011;69636;52.372;13.610;2023-08-07T14:17:00;6.57;;;2.45;;
80322;SDS011;69636;52.372;13.610;2023-08-07T14:19:29;3.92;;;2.00;;
80322;SDS011;69636;52.372;13.610;2023-08-07T14:21:56;4.63;;;2.45;;
80322;SDS011;69636;52.372;13.610;2023-08-07T14:24:23;4.28;;;2.13;;
80322;SDS011;69636;52.372;13.610;2023-08-07T14:26:51;4.18;;;2.60;;
80322;SDS011;69636;52.372;13.610;2023-08-07T14:29:19;3.00;;;1.58;;
80322;SDS011;69636;52.372;13.610;2023-08-07T14:31:47;3.03;;;1.30;;
80322;SDS011;69636;52.372;13.610;2023-08-07T14:34:15;5.05;;;3.92;;
80322;SDS011;69636;52.372;13.610;2023-08-07T14:36:42;2.63;;;1.08;;
80322;SDS011;69636;52.372;13.610;2023-08-07T14:39:11;3.75;;;1.52;;
80322;SDS011;69636;52.372;13.610;2023-08-07T14:41:38;3.00;;;0.73;;
80322;SDS011;69636;52.372;13.610;2023-08-07T14:44:05;4.28;;;1.60;;
80322;SDS011;69636;52.372;13.610;2023-08-07T14:46:34;4.00;;;0.60;;
80322;SDS011;69636;52.372;13.610;2023-08-07T14:49:02;3.70;;;1.33;;
80322;SDS011;69636;52.372;13.610;2023-08-07T14:51:29;7.13;;;1.67;;
80322;SDS011;69636;52.372;13.610;2023-08-07T14:53:57;5.10;;;1.40;;
80322;SDS011;69636;52.372;13.610;2023-08-07T14:56:24;4.18;;;1.70;;
80322;SDS011;69636;52.372;13.610;2023-08-07T14:58:51;4.57;;;1.40;;
80322;SDS011;69636;52.372;13.610;2023-08-07T15:01:19;5.20;;;1.67;;
80322;SDS011;69636;52.372;13.610;2023-08-07T15:06:15;2.90;;;1.15;;
80322;SDS011;69636;52.372;13.610;2023-08-07T15:08:42;4.20;;;1.85;;
80322;SDS011;69636;52.372;13.610;2023-08-07T15:11:10;4.95;;;1.73;;
80322;SDS011;69636;52.372;13.610;2023-08-07T15:13:37;4.70;;;1.95;;
80322;SDS011;69636;52.372;13.610;2023-08-07T15:16:05;5.20;;;1.33;;